createdAt,value
2018-02-18T00:03:05.585Z,21.80
2018-02-18T00:05:38.199Z,20.10
2018-02-18T00:08:09.754Z,21.25
2018-02-18T00:10:40.844Z,22.87
2018-02-18T00:13:34.848Z,21.10
2018-02-18T00:16:03.706Z,19.73
2018-02-18T00:18:31.822Z,20.55
2018-02-18T00:21:03.520Z,20.70
2018-02-18T00:23:30.292Z,20.83
2018-02-18T00:42:47.679Z,19.35
2018-02-18T00:45:15.662Z,20.12
2018-02-18T00:47:46.727Z,21.67
2018-02-18T00:50:13.996Z,21.52
2018-02-18T00:52:55.360Z,20.67
2018-02-18T00:55:22.048Z,20.60
2018-02-18T00:57:53.436Z,20.00
2018-02-18T01:00:20.160Z,19.45
2018-02-18T01:05:49.320Z,21.25
2018-02-18T01:08:19.908Z,18.58
2018-02-18T01:10:46.589Z,18.85
2018-02-18T01:16:04.732Z,19.45
2018-02-18T01:18:32.146Z,20.52
2018-02-18T01:20:58.853Z,19.95
2018-02-18T01:23:29.047Z,18.83
2018-02-18T01:25:55.770Z,19.92
2018-02-18T01:28:22.410Z,19.00
2018-02-18T01:30:53.156Z,20.23
2018-02-18T01:33:24.270Z,18.25
2018-02-18T01:35:54.812Z,19.58
2018-02-18T01:38:25.737Z,20.05
2018-02-18T01:40:52.502Z,19.55
2018-02-18T01:43:28.360Z,17.75
2018-02-18T01:45:56.928Z,19.48
2018-02-18T01:48:27.975Z,18.98
2018-02-18T01:51:20.935Z,18.55
2018-02-18T01:53:52.792Z,17.62
2018-02-18T01:56:25.183Z,19.15
2018-02-18T01:58:57.408Z,20.12
2018-02-18T02:01:42.366Z,19.67
2018-02-18T02:04:11.987Z,17.55
2018-02-18T02:06:43.496Z,17.83
2018-02-18T02:09:15.187Z,20.20
2018-02-18T02:11:46.732Z,19.08
2018-02-18T02:14:18.017Z,20.30
2018-02-18T02:16:45.625Z,19.35
2018-02-18T02:19:26.256Z,19.90
2018-02-18T02:21:53.636Z,17.85
2018-02-18T02:24:25.694Z,19.12
2018-02-18T02:27:00.169Z,17.92
2018-02-18T02:29:26.925Z,19.35
2018-02-18T02:32:04.023Z,18.83
2018-02-18T02:34:30.807Z,21.58
2018-02-18T02:37:01.676Z,18.90
2018-02-18T02:39:28.947Z,18.40
2018-02-18T02:42:03.553Z,19.15
2018-02-18T02:44:30.981Z,19.73
2018-02-18T02:46:58.397Z,20.45
2018-02-18T02:49:29.176Z,20.25
2018-02-18T02:51:56.477Z,20.25
2018-02-18T02:54:23.200Z,20.00
2018-02-18T02:56:54.781Z,17.12
2018-02-18T02:59:22.064Z,18.23
2018-02-18T03:01:54.808Z,17.02
2018-02-18T03:04:21.556Z,19.85
2018-02-18T03:06:49.645Z,17.27
2018-02-18T03:09:21.885Z,18.40
2018-02-18T03:11:48.597Z,19.92
2018-02-18T03:14:16.052Z,17.67
2018-02-18T03:16:47.124Z,17.77
2018-02-18T03:19:18.068Z,18.73
2018-02-18T03:21:53.254Z,20.15
2018-02-18T03:24:20.126Z,18.85
2018-02-18T03:27:00.657Z,19.90
2018-02-18T03:29:27.822Z,19.65
2018-02-18T03:31:55.293Z,18.83
2018-02-18T03:34:26.096Z,19.83
2018-02-18T03:36:56.804Z,19.55
2018-02-18T03:39:24.750Z,18.80
2018-02-18T03:41:52.044Z,18.42
2018-02-18T03:44:18.833Z,20.45
2018-02-18T03:46:46.375Z,19.37
2018-02-18T03:49:13.965Z,19.65
2018-02-18T03:52:00.670Z,18.52
2018-02-18T03:54:27.382Z,19.10
2018-02-18T03:56:59.249Z,18.80
2018-02-18T03:59:25.956Z,18.35
2018-02-18T04:01:55.810Z,19.92
2018-02-18T04:04:34.488Z,20.50
2018-02-18T04:07:09.870Z,19.60
2018-02-18T04:09:38.454Z,18.77
2018-02-18T04:12:07.125Z,18.75
2018-02-18T04:14:40.768Z,21.25
2018-02-18T04:17:13.690Z,20.00
2018-02-18T04:19:46.265Z,20.95
2018-02-18T04:22:14.857Z,18.35
2018-02-18T04:24:49.375Z,18.42
2018-02-18T04:27:17.811Z,18.77
2018-02-18T04:29:51.149Z,18.40
2018-02-18T04:32:17.938Z,18.25
2018-02-18T04:34:48.616Z,18.20
2018-02-18T04:37:20.287Z,17.45
2018-02-18T04:39:52.776Z,19.55
2018-02-18T04:42:19.630Z,16.73
2018-02-18T04:44:50.697Z,17.12
2018-02-18T04:47:19.114Z,18.67
2018-02-18T04:49:50.144Z,18.67
2018-02-18T04:52:16.959Z,17.60
2018-02-18T04:54:43.782Z,16.20
2018-02-18T04:57:10.490Z,19.75
2018-02-18T04:59:39.161Z,16.23
2018-02-18T05:02:06.826Z,17.10
2018-02-18T05:04:37.616Z,17.80
2018-02-18T05:07:05.052Z,17.33
2018-02-18T05:09:32.890Z,17.70
2018-02-18T05:12:08.972Z,19.12
2018-02-18T05:14:49.572Z,16.92
2018-02-18T05:17:19.875Z,17.85
2018-02-18T05:19:47.659Z,17.55
2018-02-18T05:22:26.340Z,16.27
2018-02-18T05:24:58.979Z,18.05
2018-02-18T05:27:30.772Z,18.70
2018-02-18T05:29:58.599Z,18.15
2018-02-18T05:32:28.909Z,16.25
2018-02-18T05:34:57.609Z,17.40
2018-02-18T05:37:25.140Z,16.77
2018-02-18T05:39:58.680Z,18.52
2018-02-18T05:42:26.562Z,15.38
2018-02-18T05:44:53.882Z,17.27
2018-02-18T05:47:27.740Z,16.33
2018-02-18T05:50:00.236Z,16.87
2018-02-18T05:52:26.951Z,15.52
2018-02-18T05:54:54.120Z,16.83
2018-02-18T05:57:25.049Z,16.33
2018-02-18T05:59:53.645Z,16.83
2018-02-18T06:02:20.478Z,17.10
2018-02-18T06:04:48.591Z,16.52
2018-02-18T06:07:19.391Z,20.35
2018-02-18T06:09:50.032Z,20.55
2018-02-18T06:12:17.848Z,19.85
2018-02-18T06:14:45.885Z,20.52
2018-02-18T06:17:16.700Z,19.37
2018-02-18T06:19:44.368Z,15.70
2018-02-18T06:22:16.064Z,18.33
2018-02-18T06:24:47.829Z,17.70
2018-02-18T06:27:14.501Z,16.85
2018-02-18T06:29:49.754Z,14.60
2018-02-18T06:32:24.590Z,17.25
2018-02-18T06:35:01.117Z,16.77
2018-02-18T06:37:27.900Z,18.12
2018-02-18T06:39:54.591Z,15.98
2018-02-18T06:42:21.336Z,16.83
2018-02-18T06:44:53.578Z,15.88
2018-02-18T06:47:20.468Z,15.60
2018-02-18T06:49:48.009Z,15.80
2018-02-18T06:52:14.832Z,17.17
2018-02-18T06:54:41.605Z,15.88
2018-02-18T06:57:12.288Z,15.55
2018-02-18T06:59:43.203Z,19.70
2018-02-18T07:02:11.784Z,17.30
2018-02-18T07:04:38.446Z,18.08
2018-02-18T07:07:05.554Z,16.27
2018-02-18T07:09:32.851Z,15.65
2018-02-18T07:12:04.001Z,18.00
2018-02-18T07:14:31.654Z,16.67
2018-02-18T07:16:58.284Z,16.85
2018-02-18T07:19:24.933Z,16.98
2018-02-18T07:21:51.623Z,16.67
2018-02-18T07:24:18.268Z,17.02
2018-02-18T07:26:45.277Z,17.87
2018-02-18T07:29:11.909Z,16.25
2018-02-18T07:31:38.568Z,17.90
2018-02-18T07:34:05.204Z,17.42
2018-02-18T07:36:31.841Z,17.80
2018-02-18T07:38:59.242Z,16.70
2018-02-18T07:41:25.875Z,20.65
2018-02-18T07:43:53.473Z,18.23
2018-02-18T07:46:20.133Z,16.52
2018-02-18T07:48:46.822Z,15.82
2018-02-18T07:51:13.496Z,14.07
2018-02-18T07:53:40.206Z,15.60
2018-02-18T07:56:06.861Z,15.20
2018-02-18T07:58:33.640Z,16.50
2018-02-18T08:01:00.302Z,16.98
2018-02-18T08:03:27.042Z,16.83
2018-02-18T08:05:53.685Z,15.85
2018-02-18T08:08:20.364Z,15.00
2018-02-18T08:10:46.990Z,17.17
2018-02-18T08:13:13.649Z,15.82
2018-02-18T08:15:46.852Z,14.87
2018-02-18T08:18:13.512Z,14.18
2018-02-18T08:20:40.158Z,13.90
2018-02-18T08:23:06.806Z,14.73
2018-02-18T08:25:33.510Z,13.52
2018-02-18T08:28:00.241Z,14.13
2018-02-18T08:30:31.098Z,15.57
2018-02-18T08:32:57.902Z,15.13
2018-02-18T08:35:24.974Z,13.25
2018-02-18T08:37:51.768Z,13.88
2018-02-18T08:40:19.235Z,13.75
2018-02-18T08:42:50.081Z,13.88
2018-02-18T08:45:16.748Z,13.68
2018-02-18T08:47:43.434Z,14.80
2018-02-18T08:50:10.123Z,13.88
2018-02-18T08:52:36.943Z,13.85
2018-02-18T08:55:07.823Z,16.23
2018-02-18T08:57:38.433Z,14.38
2018-02-18T09:00:05.716Z,14.60
2018-02-18T09:02:33.376Z,15.50
2018-02-18T09:05:01.109Z,14.25
2018-02-18T09:07:28.068Z,16.25
2018-02-18T09:09:55.299Z,14.23
2018-02-18T09:12:23.558Z,14.38
2018-02-18T09:14:52.817Z,13.80
2018-02-18T09:17:20.303Z,13.68
2018-02-18T09:19:47.148Z,14.27
2018-02-18T09:22:15.330Z,14.57
2018-02-18T09:24:42.786Z,15.50
2018-02-18T09:27:09.932Z,12.93
2018-02-18T09:29:36.685Z,13.57
2018-02-18T09:32:04.919Z,15.10
2018-02-18T09:34:31.669Z,14.90
2018-02-18T09:36:58.489Z,14.73
2018-02-18T09:39:25.615Z,15.32
2018-02-18T09:41:57.314Z,14.40
2018-02-18T09:44:24.607Z,16.27
2018-02-18T09:46:51.588Z,15.15
2018-02-18T09:49:18.664Z,16.70
2018-02-18T09:51:49.729Z,16.73
2018-02-18T09:54:17.173Z,18.62
2018-02-18T09:56:48.130Z,17.03
2018-02-18T09:59:16.270Z,18.03
2018-02-18T10:01:44.157Z,19.00
2018-02-18T10:04:11.135Z,18.97
2018-02-18T10:06:37.970Z,19.93
2018-02-18T10:09:04.749Z,19.20
2018-02-18T10:11:35.677Z,20.43
2018-02-18T10:14:02.565Z,20.63
2018-02-18T10:16:33.597Z,20.93
2018-02-18T10:19:08.866Z,20.20
2018-02-18T10:21:36.725Z,20.73
2018-02-18T10:24:03.632Z,23.67
2018-02-18T10:26:32.035Z,20.23
2018-02-18T10:28:59.034Z,22.63
2018-02-18T10:31:26.047Z,22.67
2018-02-18T10:33:54.221Z,21.87
2018-02-18T10:36:22.064Z,20.90
2018-02-18T10:38:54.081Z,22.20
2018-02-18T10:41:29.376Z,20.60
2018-02-18T10:43:57.253Z,22.20
2018-02-18T10:46:28.943Z,22.13
2018-02-18T10:48:56.842Z,22.27
2018-02-18T10:51:48.518Z,22.77
2018-02-18T10:54:15.657Z,22.70
2018-02-18T10:56:43.352Z,20.95
2018-02-18T10:59:11.164Z,22.35
2018-02-18T11:01:38.606Z,19.87
2018-02-18T11:04:11.699Z,19.90
2018-02-18T11:06:38.834Z,20.85
2018-02-18T11:09:06.358Z,19.92
2018-02-18T11:11:34.852Z,19.40
2018-02-18T11:14:13.414Z,19.45
2018-02-18T11:24:25.956Z,18.52
2018-02-18T11:26:57.010Z,19.30
2018-02-18T11:29:27.726Z,21.10
2018-02-18T11:31:55.486Z,19.87
2018-02-18T11:34:22.980Z,17.50
2018-02-18T11:36:49.807Z,18.48
2018-02-18T11:39:20.731Z,19.90
2018-02-18T11:41:51.344Z,20.27
2018-02-18T11:44:18.157Z,19.27
2018-02-18T11:46:45.046Z,20.85
2018-02-18T11:49:11.776Z,16.98
2018-02-18T11:51:38.453Z,18.23
2018-02-18T11:54:09.653Z,19.02
2018-02-18T11:56:36.746Z,19.37
2018-02-18T11:59:04.540Z,19.50
2018-02-18T12:01:31.273Z,18.40
2018-02-18T12:03:58.339Z,19.90
2018-02-18T12:06:26.124Z,19.08
2018-02-18T12:08:53.202Z,18.95
2018-02-18T12:11:20.438Z,21.35
2018-02-18T12:13:47.484Z,19.17
2018-02-18T12:16:14.229Z,18.83
2018-02-18T12:18:41.120Z,18.17
2018-02-18T12:21:08.622Z,19.50
2018-02-18T12:23:39.609Z,18.45
2018-02-18T12:26:07.468Z,20.15
2018-02-18T12:28:34.374Z,19.75
2018-02-18T12:31:01.498Z,21.30
2018-02-18T12:33:28.635Z,21.00
2018-02-18T12:35:55.454Z,19.62
2018-02-18T12:38:22.315Z,19.83
2018-02-18T12:40:49.207Z,18.00
2018-02-18T12:43:16.065Z,19.00
2018-02-18T12:45:48.690Z,19.05
2018-02-18T12:48:18.431Z,19.40
2018-02-18T12:50:45.312Z,19.90
2018-02-18T12:53:12.760Z,19.98
2018-02-18T12:55:39.619Z,18.77
2018-02-18T12:58:07.094Z,18.60
2018-02-18T13:00:33.811Z,18.62
2018-02-18T13:03:04.892Z,18.67
2018-02-18T13:05:31.595Z,18.20
2018-02-18T13:07:58.655Z,19.98
2018-02-18T13:10:25.925Z,18.65
2018-02-18T13:12:52.951Z,18.48
2018-02-18T13:15:20.031Z,18.37
2018-02-18T13:17:47.282Z,19.27
2018-02-18T13:20:14.189Z,17.33
2018-02-18T13:22:45.296Z,17.50
2018-02-18T13:25:12.326Z,17.67
2018-02-18T13:27:40.250Z,16.30
2018-02-18T13:30:07.304Z,17.70
2018-02-18T13:32:34.492Z,18.58
2018-02-18T13:35:01.783Z,17.77
2018-02-18T13:37:29.131Z,16.73
2018-02-18T13:39:56.251Z,17.98
2018-02-18T13:42:23.383Z,18.35
2018-02-18T13:44:50.274Z,17.75
2018-02-18T13:47:17.257Z,16.25
2018-02-18T13:49:44.907Z,17.65
2018-02-18T13:52:11.735Z,15.90
2018-02-18T13:54:43.190Z,17.25
2018-02-18T13:57:10.388Z,17.00
2018-02-18T13:59:37.453Z,18.17
2018-02-18T14:02:04.282Z,16.00
2018-02-18T14:04:31.184Z,17.73
2018-02-18T14:06:58.021Z,16.33
2018-02-18T14:09:25.054Z,17.25
2018-02-18T14:11:51.903Z,17.17
2018-02-18T14:14:19.109Z,16.30
2018-02-18T14:16:46.082Z,16.85
2018-02-18T14:19:13.809Z,16.40
2018-02-18T14:21:40.626Z,17.90
2018-02-18T14:24:11.494Z,16.50
2018-02-18T14:26:39.145Z,17.33
2018-02-18T14:29:06.064Z,16.75
2018-02-18T14:31:33.368Z,17.20
2018-02-18T14:34:01.450Z,15.55
2018-02-18T14:36:32.636Z,16.58
2018-02-18T14:39:00.364Z,16.50
2018-02-18T14:41:33.532Z,15.48
2018-02-18T14:44:07.320Z,14.48
2018-02-18T14:46:41.022Z,15.73
2018-02-18T14:49:14.858Z,16.20
2018-02-18T14:52:08.857Z,16.60
2018-02-18T14:54:41.922Z,16.33
2018-02-18T14:57:27.386Z,15.85
2018-02-18T14:59:54.356Z,15.20
2018-02-18T15:02:21.297Z,15.95
2018-02-18T15:04:49.468Z,15.90
2018-02-18T15:07:16.775Z,14.73
2018-02-18T15:09:44.346Z,16.92
2018-02-18T15:12:11.129Z,15.48
2018-02-18T15:14:38.261Z,15.30
2018-02-18T15:17:06.405Z,16.48
2018-02-18T15:19:33.879Z,15.68
2018-02-18T15:22:01.986Z,13.93
2018-02-18T15:24:32.795Z,14.60
2018-02-18T15:27:00.182Z,14.02
2018-02-18T15:29:27.126Z,15.60
2018-02-18T15:31:54.302Z,14.77
2018-02-18T15:34:21.645Z,14.77
2018-02-18T15:36:49.296Z,14.82
2018-02-18T15:39:17.029Z,14.30
2018-02-18T15:41:47.192Z,14.18
2018-02-18T15:44:14.633Z,14.52
2018-02-18T15:46:43.071Z,15.48
2018-02-18T15:49:10.838Z,14.18
2018-02-18T15:51:37.775Z,14.38
2018-02-18T15:54:08.984Z,15.32
2018-02-18T15:56:36.122Z,14.38
2018-02-18T15:59:03.263Z,15.20
2018-02-18T16:01:30.218Z,14.65
2018-02-18T16:04:01.926Z,14.57
2018-02-18T16:06:29.409Z,15.63
2018-02-18T16:08:56.452Z,24.58
2018-02-18T16:11:23.403Z,31.27
2018-02-18T16:13:50.368Z,22.30
2018-02-18T16:16:18.074Z,18.33
2018-02-18T16:18:45.291Z,16.25
2018-02-18T16:21:12.317Z,14.43
2018-02-18T16:23:39.525Z,14.55
2018-02-18T16:26:06.767Z,13.68
2018-02-18T16:28:33.890Z,13.48
2018-02-18T16:31:01.383Z,14.68
2018-02-18T16:33:32.602Z,14.73
2018-02-18T16:36:00.011Z,14.40
2018-02-18T16:38:27.772Z,13.95
2018-02-18T16:40:55.371Z,17.27
2018-02-18T16:43:23.887Z,14.85
2018-02-18T16:45:55.598Z,15.82
2018-02-18T16:48:23.035Z,15.50
2018-02-18T16:50:50.537Z,14.55
2018-02-18T16:53:18.203Z,14.15
2018-02-18T16:55:45.224Z,13.43
2018-02-18T16:58:12.544Z,20.17
2018-02-18T17:00:39.684Z,22.08
2018-02-18T17:03:07.635Z,21.33
2018-02-18T17:05:34.843Z,18.45
2018-02-18T17:08:02.424Z,18.45
2018-02-18T17:10:29.861Z,17.95
2018-02-18T17:12:57.078Z,22.52
2018-02-18T17:15:24.372Z,19.90
2018-02-18T17:17:51.616Z,17.17
2018-02-18T17:20:18.858Z,16.15
2018-02-18T17:22:45.947Z,15.32
2018-02-18T17:25:13.102Z,15.75
2018-02-18T17:27:40.365Z,15.27
2018-02-18T17:30:07.355Z,16.83
2018-02-18T17:32:39.111Z,17.77
2018-02-18T17:35:06.245Z,15.25
2018-02-18T17:37:37.114Z,15.50
2018-02-18T17:40:04.481Z,17.15
2018-02-18T17:42:31.806Z,15.88
2018-02-18T17:44:59.578Z,15.75
2018-02-18T17:47:26.750Z,17.75
2018-02-18T17:49:53.986Z,16.37
2018-02-18T17:52:26.545Z,15.52
2018-02-18T17:54:57.904Z,14.43
2018-02-18T17:57:25.917Z,15.38
2018-02-18T17:59:54.184Z,15.55
2018-02-18T18:02:29.790Z,15.50
2018-02-18T18:04:58.480Z,14.27
2018-02-18T18:07:28.886Z,14.43
2018-02-18T18:10:03.185Z,16.25
2018-02-18T18:12:34.099Z,17.33
2018-02-18T18:15:09.849Z,14.38
2018-02-18T18:20:43.555Z,15.05
2018-02-18T18:23:13.410Z,14.45
